createdAt,value
2018-11-06T00:00:39.063Z,19.20
2018-11-06T00:01:39.080Z,16.30
2018-11-06T00:02:39.104Z,20.50
2018-11-06T00:03:39.116Z,16.90
2018-11-06T00:04:39.130Z,17.60
2018-11-06T00:05:39.143Z,19.40
2018-11-06T00:06:39.157Z,21.30
2018-11-06T00:07:39.174Z,19.60
2018-11-06T00:08:39.196Z,17.70
2018-11-06T00:09:39.210Z,17.70
2018-11-06T00:10:39.223Z,14.90
2018-11-06T00:11:39.238Z,17.30
2018-11-06T00:12:39.264Z,17.40
2018-11-06T00:13:39.276Z,20.70
2018-11-06T00:14:39.297Z,19.40
2018-11-06T00:15:39.304Z,17.90
2018-11-06T00:16:39.332Z,15.10
2018-11-06T00:17:39.346Z,16.20
2018-11-06T00:18:39.356Z,16.40
2018-11-06T00:19:39.371Z,17.50
2018-11-06T00:20:39.397Z,16.20
2018-11-06T00:21:39.409Z,18.60
2018-11-06T00:22:39.424Z,17.40
2018-11-06T00:23:39.437Z,16.60
2018-11-06T00:24:39.461Z,18.00
2018-11-06T00:25:39.477Z,19.60
2018-11-06T00:26:39.490Z,19.10
2018-11-06T00:27:39.504Z,17.30
2018-11-06T00:28:39.531Z,18.30
2018-11-06T00:29:39.542Z,18.50
2018-11-06T00:30:39.556Z,17.00
2018-11-06T00:31:39.569Z,17.40
2018-11-06T00:32:39.596Z,16.70
2018-11-06T00:33:39.610Z,19.90
2018-11-06T00:34:39.622Z,16.90
2018-11-06T00:35:39.637Z,17.40
2018-11-06T00:36:39.651Z,18.10
2018-11-06T00:37:39.676Z,21.10
2018-11-06T00:38:39.690Z,19.00
2018-11-06T00:39:39.704Z,18.40
2018-11-06T00:40:39.720Z,18.90
2018-11-06T00:41:39.742Z,17.40
2018-11-06T00:42:39.769Z,19.90
2018-11-06T00:43:39.769Z,17.40
2018-11-06T00:44:39.782Z,21.30
2018-11-06T00:45:39.808Z,21.40
2018-11-06T00:46:39.823Z,20.80
2018-11-06T00:47:39.837Z,18.80
2018-11-06T00:48:39.854Z,18.60
2018-11-06T00:49:39.876Z,21.10
2018-11-06T00:50:39.889Z,19.50
2018-11-06T00:51:39.904Z,20.30
2018-11-06T00:52:39.917Z,21.40
2018-11-06T00:53:39.941Z,21.10
2018-11-06T00:54:39.957Z,18.50
2018-11-06T00:55:39.969Z,21.10
2018-11-06T00:56:39.983Z,17.80
2018-11-06T00:57:39.995Z,21.80
2018-11-06T00:58:40.022Z,19.00
2018-11-06T00:59:40.036Z,18.60
2018-11-06T01:00:40.050Z,20.00
2018-11-06T01:01:40.064Z,22.60
2018-11-06T01:02:40.090Z,20.90
2018-11-06T01:03:40.136Z,15.40
2018-11-06T01:04:40.116Z,19.50
2018-11-06T01:05:40.129Z,17.90
2018-11-06T01:06:40.147Z,19.70
2018-11-06T01:07:40.173Z,18.00
2018-11-06T01:08:40.183Z,19.20
2018-11-06T01:09:40.198Z,18.50
2018-11-06T01:10:40.209Z,18.80
2018-11-06T01:11:40.235Z,18.60
2018-11-06T01:12:40.249Z,17.90
2018-11-06T01:13:40.263Z,18.70
2018-11-06T01:14:40.276Z,19.70
2018-11-06T01:15:40.303Z,16.90
2018-11-06T01:16:40.315Z,20.70
2018-11-06T01:17:40.330Z,19.60
2018-11-06T01:18:40.346Z,15.00
2018-11-06T01:19:40.358Z,21.10
2018-11-06T01:20:40.387Z,19.80
2018-11-06T01:21:40.395Z,18.50
2018-11-06T01:22:40.409Z,19.90
2018-11-06T01:23:40.435Z,17.60
2018-11-06T01:24:40.448Z,17.30
2018-11-06T01:25:40.465Z,17.30
2018-11-06T01:26:40.476Z,21.00
2018-11-06T01:27:40.489Z,18.60
2018-11-06T01:28:40.504Z,17.50
2018-11-06T01:29:40.529Z,18.40
2018-11-06T01:30:40.544Z,20.50
2018-11-06T01:31:40.555Z,21.40
2018-11-06T01:32:40.570Z,18.00
2018-11-06T01:33:40.595Z,17.80
2018-11-06T01:34:40.608Z,17.40
2018-11-06T01:35:40.622Z,18.30
2018-11-06T01:36:40.636Z,20.00
2018-11-06T01:37:40.661Z,18.10
2018-11-06T01:38:40.676Z,18.40
2018-11-06T01:39:40.688Z,18.20
2018-11-06T01:40:40.703Z,16.60
2018-11-06T01:41:40.717Z,18.20
2018-11-06T01:42:40.741Z,19.90
2018-11-06T01:43:40.758Z,18.30
2018-11-06T01:44:40.769Z,18.80
2018-11-06T01:45:40.782Z,18.80
2018-11-06T01:46:40.808Z,20.50
2018-11-06T01:47:40.832Z,18.10
2018-11-06T01:48:40.836Z,17.90
2018-11-06T01:49:40.848Z,19.50
2018-11-06T01:50:40.888Z,17.40
2018-11-06T01:51:40.890Z,21.00
2018-11-06T01:52:40.902Z,18.10
2018-11-06T01:53:40.920Z,19.40
2018-11-06T01:54:40.942Z,21.30
2018-11-06T01:55:40.954Z,19.60
2018-11-06T01:56:40.970Z,18.60
2018-11-06T01:57:40.982Z,20.30
2018-11-06T01:58:41.008Z,27.60
2018-11-06T01:59:41.023Z,18.00
2018-11-06T02:00:41.039Z,19.90
2018-11-06T02:01:41.049Z,19.80
2018-11-06T02:02:41.063Z,20.00
2018-11-06T02:03:41.101Z,19.50
2018-11-06T02:04:41.103Z,18.70
2018-11-06T02:05:41.114Z,18.50
2018-11-06T02:06:41.130Z,20.90
2018-11-06T02:07:41.155Z,19.10
2018-11-06T02:08:41.168Z,20.80
2018-11-06T02:09:41.182Z,22.30
2018-11-06T02:10:41.196Z,17.00
2018-11-06T02:11:41.221Z,19.00
2018-11-06T02:12:41.235Z,18.10
2018-11-06T02:13:41.250Z,18.90
2018-11-06T02:14:41.263Z,21.40
2018-11-06T02:15:41.276Z,18.10
2018-11-06T02:16:41.301Z,19.60
2018-11-06T02:17:41.315Z,21.30
2018-11-06T02:18:41.329Z,22.00
2018-11-06T02:19:41.355Z,19.70
2018-11-06T02:20:41.369Z,20.00
2018-11-06T02:21:41.382Z,18.50
2018-11-06T02:22:41.395Z,21.20
2018-11-06T02:23:41.409Z,18.90
2018-11-06T02:24:41.448Z,22.30
2018-11-06T02:25:41.449Z,21.80
2018-11-06T02:26:41.461Z,17.90
2018-11-06T02:27:41.475Z,19.80
2018-11-06T02:28:41.489Z,20.40
2018-11-06T02:29:41.514Z,18.70
2018-11-06T02:30:41.529Z,18.50
2018-11-06T02:31:41.541Z,21.90
2018-11-06T02:32:41.557Z,21.10
2018-11-06T02:33:41.585Z,22.10
2018-11-06T02:34:41.595Z,22.00
2018-11-06T02:35:41.609Z,21.20
2018-11-06T02:36:41.622Z,18.80
2018-11-06T02:37:41.648Z,21.90
2018-11-06T02:38:41.664Z,24.90
2018-11-06T02:39:41.676Z,18.90
2018-11-06T02:40:41.688Z,19.70
2018-11-06T02:41:41.702Z,20.90
2018-11-06T02:42:41.729Z,22.90
2018-11-06T02:43:41.742Z,22.60
2018-11-06T02:44:41.771Z,20.30
2018-11-06T02:45:41.769Z,19.10
2018-11-06T02:46:41.795Z,21.00
2018-11-06T02:47:41.808Z,22.00
2018-11-06T02:48:41.822Z,17.90
2018-11-06T02:49:41.835Z,22.60
2018-11-06T02:50:41.850Z,19.70
2018-11-06T02:51:41.876Z,21.40
2018-11-06T02:52:41.888Z,23.50
2018-11-06T02:53:41.904Z,22.10
2018-11-06T02:54:41.915Z,24.20
2018-11-06T02:55:41.976Z,23.20
2018-11-06T02:56:41.959Z,21.90
2018-11-06T02:57:41.971Z,21.80
2018-11-06T02:58:41.983Z,24.40
2018-11-06T02:59:41.996Z,22.00
2018-11-06T03:00:42.027Z,23.40
2018-11-06T03:01:42.036Z,22.10
2018-11-06T03:02:42.048Z,24.30
2018-11-06T03:03:42.063Z,25.30
2018-11-06T03:04:42.076Z,22.80
2018-11-06T03:05:42.115Z,25.50
2018-11-06T03:06:42.116Z,25.50
2018-11-06T03:07:42.128Z,25.00
2018-11-06T03:08:42.143Z,22.30
2018-11-06T03:09:42.156Z,25.20
2018-11-06T03:10:42.181Z,24.40
2018-11-06T03:11:42.196Z,24.60
2018-11-06T03:12:42.209Z,24.70
2018-11-06T03:13:42.229Z,22.50
2018-11-06T03:14:42.237Z,23.80
2018-11-06T03:15:42.262Z,27.40
2018-11-06T03:16:42.322Z,23.30
2018-11-06T03:17:42.288Z,23.00
2018-11-06T03:18:42.303Z,25.10
2018-11-06T03:19:42.316Z,25.00
2018-11-06T03:20:42.342Z,24.90
2018-11-06T03:21:42.356Z,26.60
2018-11-06T03:22:42.368Z,26.70
2018-11-06T03:23:42.383Z,27.00
2018-11-06T03:24:42.396Z,24.20
2018-11-06T03:25:42.422Z,30.30
2018-11-06T03:26:42.479Z,26.30
2018-11-06T03:27:42.448Z,26.40
2018-11-06T03:28:42.463Z,24.40
2018-11-06T03:29:42.477Z,26.90
2018-11-06T03:30:42.502Z,28.80
2018-11-06T03:31:42.516Z,26.60
2018-11-06T03:32:42.535Z,26.60
2018-11-06T03:33:42.543Z,24.10
2018-11-06T03:34:42.556Z,27.10
2018-11-06T03:35:42.571Z,27.30
2018-11-06T03:36:42.596Z,29.70
2018-11-06T03:37:42.609Z,24.60
2018-11-06T03:38:42.624Z,28.50
2018-11-06T03:39:42.636Z,26.80
2018-11-06T03:40:42.650Z,28.20
2018-11-06T03:41:42.677Z,25.20
2018-11-06T03:42:42.690Z,29.30
2018-11-06T03:43:42.704Z,28.50
2018-11-06T03:44:42.717Z,32.10
2018-11-06T03:45:42.730Z,28.30
2018-11-06T03:46:42.757Z,30.80
2018-11-06T03:47:42.770Z,27.10
2018-11-06T03:48:42.784Z,27.70
2018-11-06T03:49:42.800Z,26.10
2018-11-06T03:50:42.814Z,28.80
2018-11-06T03:51:42.824Z,26.60
2018-11-06T03:52:42.850Z,29.90
2018-11-06T03:53:42.864Z,32.40
2018-11-06T03:54:42.882Z,29.00
2018-11-06T03:55:42.893Z,27.80
2018-11-06T03:56:42.905Z,35.60
2018-11-06T03:57:42.930Z,26.90
2018-11-06T03:58:42.943Z,28.80
2018-11-06T03:59:42.970Z,28.00
2018-11-06T04:00:42.970Z,30.30
2018-11-06T04:01:42.985Z,32.80
2018-11-06T04:02:43.009Z,27.90
2018-11-06T04:03:43.024Z,26.20
2018-11-06T04:04:43.036Z,30.40
2018-11-06T04:05:43.051Z,31.70
2018-11-06T04:06:43.063Z,32.40
2018-11-06T04:07:43.078Z,31.00
2018-11-06T04:08:43.104Z,33.00
2018-11-06T04:09:43.117Z,32.50
2018-11-06T04:10:43.130Z,34.00
2018-11-06T04:11:43.143Z,35.30
2018-11-06T04:12:43.161Z,31.10
2018-11-06T04:13:43.172Z,34.50
2018-11-06T04:14:43.196Z,32.90
2018-11-06T04:15:43.211Z,31.70
2018-11-06T04:16:43.224Z,35.50
2018-11-06T04:17:43.239Z,36.00
2018-11-06T04:18:43.251Z,31.30
2018-11-06T04:19:43.266Z,33.70
2018-11-06T04:20:43.294Z,32.40
2018-11-06T04:21:43.304Z,31.30
2018-11-06T04:22:43.324Z,28.60
2018-11-06T04:23:43.332Z,35.30
2018-11-06T04:24:43.345Z,34.80
2018-11-06T04:25:43.360Z,35.60
2018-11-06T04:26:43.384Z,34.90
2018-11-06T04:27:43.398Z,36.30
2018-11-06T04:28:43.422Z,36.20
2018-11-06T04:29:43.427Z,33.40
2018-11-06T04:30:43.439Z,31.50
2018-11-06T04:31:43.454Z,37.00
2018-11-06T04:32:43.479Z,34.60
2018-11-06T04:33:43.492Z,35.90
2018-11-06T04:34:43.507Z,32.50
2018-11-06T04:35:43.520Z,31.90
2018-11-06T04:36:43.533Z,34.00
2018-11-06T04:37:43.547Z,35.50
2018-11-06T04:38:43.571Z,31.10
2018-11-06T04:39:43.586Z,36.30
2018-11-06T04:40:43.602Z,32.90
2018-11-06T04:41:43.614Z,35.90
2018-11-06T04:42:43.626Z,38.70
2018-11-06T04:43:43.640Z,33.30
2018-11-06T04:44:43.658Z,31.60
2018-11-06T04:45:43.681Z,32.80
2018-11-06T04:46:43.697Z,31.60
2018-11-06T04:47:43.706Z,35.10
2018-11-06T04:48:43.721Z,30.90
2018-11-06T04:49:43.733Z,35.30
2018-11-06T04:50:43.748Z,33.20
2018-11-06T04:51:43.773Z,32.60
2018-11-06T04:52:43.787Z,32.60
2018-11-06T04:53:43.801Z,35.70
2018-11-06T04:54:43.828Z,34.10
2018-11-06T04:55:43.830Z,33.90
2018-11-06T04:56:43.841Z,37.40
2018-11-06T04:57:43.855Z,35.10
2018-11-06T04:58:43.882Z,33.60
2018-11-06T04:59:43.894Z,36.30
2018-11-06T05:00:43.908Z,38.00
2018-11-06T05:01:43.920Z,36.80
2018-11-06T05:02:43.941Z,39.50
2018-11-06T05:03:43.949Z,34.00
2018-11-06T05:04:43.962Z,42.00
2018-11-06T05:05:43.976Z,35.80
2018-11-06T05:06:44.047Z,39.20
2018-11-06T05:07:44.024Z,41.70
2018-11-06T05:08:44.028Z,37.30
2018-11-06T05:09:44.042Z,38.80
2018-11-06T05:10:44.059Z,35.50
2018-11-06T05:11:44.068Z,35.80
2018-11-06T05:12:44.087Z,37.60
2018-11-06T05:13:44.109Z,34.80
2018-11-06T05:14:44.122Z,38.30
2018-11-06T05:15:44.148Z,35.20
2018-11-06T05:16:44.150Z,36.50
2018-11-06T05:17:44.161Z,39.40
2018-11-06T05:18:44.176Z,32.00
2018-11-06T05:19:44.190Z,35.30
2018-11-06T05:20:44.208Z,38.20
2018-11-06T05:21:44.232Z,36.90
2018-11-06T05:22:44.245Z,40.90
2018-11-06T05:23:44.256Z,35.60
2018-11-06T05:24:44.270Z,33.10
2018-11-06T05:25:44.284Z,38.60
2018-11-06T05:26:44.296Z,36.10
2018-11-06T05:27:44.311Z,36.60
2018-11-06T05:28:44.335Z,37.60
2018-11-06T05:29:44.350Z,35.40
2018-11-06T05:30:44.363Z,38.00
2018-11-06T05:31:44.376Z,30.60
2018-11-06T05:32:44.449Z,37.10
2018-11-06T05:33:44.404Z,39.90
2018-11-06T05:34:44.438Z,36.30
2018-11-06T05:35:44.434Z,37.60
2018-11-06T05:36:44.447Z,38.20
2018-11-06T05:37:44.458Z,39.20
2018-11-06T05:38:44.503Z,37.60
2018-11-06T05:39:44.498Z,36.90
2018-11-06T05:40:44.511Z,40.80
2018-11-06T05:41:44.524Z,39.50
2018-11-06T05:42:44.539Z,34.30
2018-11-06T05:43:44.551Z,38.00
2018-11-06T05:44:44.564Z,39.90
2018-11-06T05:45:44.730Z,42.60
2018-11-06T05:46:44.594Z,44.50
2018-11-06T05:47:44.617Z,40.30
2018-11-06T05:48:44.631Z,39.30
2018-11-06T05:49:44.644Z,43.50
2018-11-06T05:50:44.660Z,48.00
2018-11-06T05:51:44.671Z,49.20
2018-11-06T05:52:44.685Z,41.00
2018-11-06T05:53:44.698Z,39.10
2018-11-06T05:54:44.712Z,40.40
2018-11-06T05:55:44.728Z,43.80
2018-11-06T05:56:44.751Z,47.20
2018-11-06T05:57:44.766Z,40.80
2018-11-06T05:58:44.779Z,44.30
2018-11-06T05:59:44.793Z,41.20
2018-11-06T06:00:44.809Z,40.00
2018-11-06T06:01:44.820Z,42.30
2018-11-06T06:02:44.832Z,41.70
2018-11-06T06:03:44.848Z,43.20
2018-11-06T06:04:44.860Z,43.30
2018-11-06T06:05:44.875Z,42.60
2018-11-06T06:06:44.901Z,46.50
2018-11-06T06:07:44.913Z,44.40
2018-11-06T06:08:44.928Z,42.10
2018-11-06T06:09:44.942Z,43.20
2018-11-06T06:10:44.954Z,45.80
2018-11-06T06:11:44.967Z,46.20
2018-11-06T06:12:44.982Z,43.90
2018-11-06T06:13:44.994Z,41.80
2018-11-06T06:14:45.015Z,42.80
2018-11-06T06:15:45.022Z,43.60
2018-11-06T06:16:45.096Z,40.60
2018-11-06T06:17:45.063Z,41.70
2018-11-06T06:18:45.075Z,41.50
2018-11-06T06:19:45.093Z,43.80
2018-11-06T06:20:45.101Z,42.40
2018-11-06T06:21:45.116Z,44.70
2018-11-06T06:22:45.129Z,44.10
2018-11-06T06:23:45.143Z,45.80
2018-11-06T06:24:45.156Z,40.50
2018-11-06T06:25:45.170Z,39.80
2018-11-06T06:26:45.188Z,42.10
2018-11-06T06:27:45.197Z,45.60
2018-11-06T06:28:45.223Z,48.80
2018-11-06T06:29:45.236Z,46.80
2018-11-06T06:30:45.252Z,41.70
2018-11-06T06:31:45.263Z,48.20
2018-11-06T06:32:45.278Z,42.70
2018-11-06T06:33:45.290Z,43.30
2018-11-06T06:34:45.330Z,47.90
2018-11-06T06:35:45.318Z,42.50
2018-11-06T06:36:45.343Z,46.30
2018-11-06T06:37:45.344Z,50.20
2018-11-06T06:38:45.436Z,49.10
2018-11-06T06:39:45.385Z,50.00
2018-11-06T06:40:45.405Z,47.30
2018-11-06T06:41:45.412Z,47.40
2018-11-06T06:42:45.438Z,47.60
2018-11-06T06:43:45.439Z,45.90
2018-11-06T06:44:45.451Z,48.30
2018-11-06T06:45:45.465Z,47.80
2018-11-06T06:46:45.479Z,46.80
2018-11-06T06:47:45.495Z,52.70
2018-11-06T06:48:45.507Z,49.40
2018-11-06T06:49:45.533Z,49.90
2018-11-06T06:50:45.545Z,48.70
2018-11-06T06:51:45.570Z,44.00
2018-11-06T06:52:45.573Z,51.80
2018-11-06T06:53:45.590Z,55.80
2018-11-06T06:54:45.707Z,48.50
2018-11-06T06:55:45.612Z,52.50
2018-11-06T06:56:45.627Z,47.30
2018-11-06T06:57:45.639Z,53.90
2018-11-06T06:58:45.654Z,53.20
2018-11-06T06:59:45.668Z,51.50
2018-11-06T07:00:45.693Z,49.00
2018-11-06T07:01:45.707Z,59.50
2018-11-06T07:02:45.719Z,56.30
2018-11-06T07:03:45.735Z,64.90
2018-11-06T07:04:45.748Z,51.70
2018-11-06T07:05:45.760Z,54.20
2018-11-06T07:06:45.779Z,54.60
2018-11-06T07:07:45.788Z,51.40
2018-11-06T07:08:45.813Z,52.60
2018-11-06T07:09:45.827Z,58.70
2018-11-06T07:10:45.842Z,55.50
2018-11-06T07:11:45.854Z,58.50
2018-11-06T07:12:45.911Z,50.60
2018-11-06T07:13:45.881Z,55.40
2018-11-06T07:14:45.897Z,58.30
2018-11-06T07:15:45.921Z,54.20
2018-11-06T07:16:45.927Z,47.20
2018-11-06T07:17:45.950Z,48.40
2018-11-06T07:18:46.043Z,53.50
2018-11-06T07:19:45.975Z,56.50
2018-11-06T07:20:45.998Z,59.20
2018-11-06T07:21:46.003Z,53.80
2018-11-06T07:22:46.018Z,51.00
2018-11-06T07:23:46.032Z,54.60
2018-11-06T07:24:46.043Z,58.10
2018-11-06T07:25:46.057Z,62.70
2018-11-06T07:26:46.083Z,59.20
2018-11-06T07:27:46.098Z,57.30
2018-11-06T07:28:46.168Z,53.70
2018-11-06T07:29:46.135Z,50.50
2018-11-06T07:30:46.137Z,56.80
2018-11-06T07:31:46.149Z,56.80
2018-11-06T07:32:46.164Z,61.40
2018-11-06T07:33:46.178Z,55.90
2018-11-06T07:34:46.316Z,55.10
2018-11-06T07:35:46.415Z,56.20
2018-11-06T07:36:46.230Z,57.40
2018-11-06T07:37:46.244Z,54.50
2018-11-06T07:38:46.256Z,59.90
2018-11-06T07:39:46.274Z,57.50
2018-11-06T07:40:46.298Z,63.40
2018-11-06T07:41:46.310Z,57.80
2018-11-06T07:42:46.325Z,64.90
2018-11-06T07:43:46.337Z,63.00
2018-11-06T07:44:46.352Z,57.50
2018-11-06T07:45:46.364Z,59.40
2018-11-06T07:46:46.378Z,63.10
2018-11-06T07:47:46.392Z,54.10
2018-11-06T07:48:46.405Z,65.20
2018-11-06T07:49:46.464Z,64.80
2018-11-06T07:50:46.444Z,61.80
2018-11-06T07:51:46.459Z,64.70
2018-11-06T07:52:46.475Z,67.00
2018-11-06T07:53:46.485Z,61.50
2018-11-06T07:54:46.500Z,62.10
2018-11-06T07:55:46.535Z,63.00
2018-11-06T07:56:46.539Z,64.40
2018-11-06T07:57:46.551Z,72.90
2018-11-06T07:58:46.566Z,68.70
2018-11-06T07:59:46.578Z,60.10
2018-11-06T08:00:46.592Z,58.20
2018-11-06T08:01:46.619Z,60.60
2018-11-06T08:02:46.631Z,62.10
2018-11-06T08:03:46.646Z,60.20
2018-11-06T08:04:46.672Z,63.60
2018-11-06T08:05:46.673Z,61.80
2018-11-06T08:06:46.686Z,64.50
2018-11-06T08:07:46.715Z,58.70
2018-11-06T08:08:46.726Z,60.50
2018-11-06T08:09:46.760Z,68.40
2018-11-06T08:10:46.754Z,65.80
2018-11-06T08:11:46.765Z,71.90
2018-11-06T08:12:46.779Z,62.40
2018-11-06T08:13:46.806Z,72.60
2018-11-06T08:14:46.820Z,66.10
2018-11-06T08:15:46.832Z,64.50
2018-11-06T08:16:46.845Z,64.50
2018-11-06T08:17:46.863Z,66.90
2018-11-06T08:18:46.889Z,65.10
2018-11-06T08:19:46.900Z,59.10
2018-11-06T08:20:47.079Z,55.40
2018-11-06T08:21:46.925Z,56.80
2018-11-06T08:22:46.940Z,64.50
2018-11-06T08:23:47.000Z,55.80
2018-11-06T08:24:46.978Z,58.50
2018-11-06T08:25:46.992Z,55.90
2018-11-06T08:26:47.005Z,54.90
2018-11-06T08:27:47.112Z,58.40
2018-11-06T08:28:47.046Z,58.70
2018-11-06T08:29:47.059Z,53.70
2018-11-06T08:30:47.261Z,54.10
2018-11-06T08:31:47.321Z,57.70
2018-11-06T08:32:47.327Z,52.40
2018-11-06T08:33:47.126Z,52.90
2018-11-06T08:34:47.139Z,53.30
2018-11-06T08:35:47.153Z,51.90
2018-11-06T08:36:47.201Z,55.80
2018-11-06T08:37:47.191Z,55.60
2018-11-06T08:38:47.206Z,53.80
2018-11-06T08:39:47.218Z,52.00
2018-11-06T08:40:47.244Z,56.00
2018-11-06T08:41:47.259Z,48.70
2018-11-06T08:42:47.272Z,49.00
2018-11-06T08:43:47.285Z,49.90
2018-11-06T08:44:47.305Z,47.70
2018-11-06T08:45:47.324Z,42.50
2018-11-06T08:46:47.339Z,46.00
2018-11-06T08:47:47.351Z,47.30
2018-11-06T08:48:47.366Z,43.30
2018-11-06T08:49:47.394Z,42.70
2018-11-06T08:50:47.404Z,43.70
2018-11-06T08:51:47.418Z,41.70
2018-11-06T08:52:47.435Z,42.50
2018-11-06T08:53:47.471Z,40.20
2018-11-06T08:54:47.471Z,39.20
2018-11-06T08:55:47.484Z,42.70
2018-11-06T08:56:47.499Z,47.30
2018-11-06T08:57:47.524Z,43.50
2018-11-06T08:58:47.537Z,37.90
2018-11-06T08:59:47.554Z,44.20
2018-11-06T09:00:47.578Z,36.10
2018-11-06T09:01:47.590Z,41.30
2018-11-06T09:02:47.605Z,36.60
2018-11-06T09:03:47.617Z,35.30
2018-11-06T09:04:47.642Z,39.80
2018-11-06T09:05:47.657Z,33.90
2018-11-06T09:06:47.670Z,37.40
2018-11-06T09:07:47.695Z,36.20
2018-11-06T09:08:47.733Z,34.90
2018-11-06T09:09:47.726Z,39.50
2018-11-06T09:10:47.748Z,40.00
2018-11-06T09:11:47.763Z,36.40
2018-11-06T09:12:47.777Z,40.80
2018-11-06T09:13:47.791Z,37.30
2018-11-06T09:14:47.816Z,34.80
2018-11-06T09:15:47.828Z,37.30
2018-11-06T09:16:47.880Z,36.10
2018-11-06T09:17:47.868Z,37.10
2018-11-06T09:18:47.882Z,38.90
2018-11-06T09:19:47.895Z,33.80
2018-11-06T09:20:47.921Z,34.00
2018-11-06T09:21:47.934Z,32.70
2018-11-06T09:22:47.948Z,37.40
2018-11-06T09:23:47.974Z,34.40
2018-11-06T09:24:47.990Z,41.50
2018-11-06T09:25:48.005Z,35.20
2018-11-06T09:26:48.028Z,34.60
2018-11-06T09:27:48.039Z,35.80
2018-11-06T09:28:48.054Z,38.20
2018-11-06T09:29:48.081Z,32.10
2018-11-06T09:30:48.130Z,33.00
2018-11-06T09:31:48.107Z,39.20
2018-11-06T09:32:48.135Z,32.40
2018-11-06T09:33:48.146Z,36.10
2018-11-06T09:34:48.171Z,36.70
2018-11-06T09:35:48.187Z,34.50
2018-11-06T09:36:48.213Z,33.20
2018-11-06T09:37:48.237Z,35.40
2018-11-06T09:38:48.239Z,32.40
2018-11-06T09:39:48.252Z,32.80
2018-11-06T09:40:48.277Z,33.50
2018-11-06T09:41:48.291Z,32.30
2018-11-06T09:42:48.305Z,33.40
2018-11-06T09:43:48.329Z,31.50
2018-11-06T09:44:48.347Z,32.60
2018-11-06T09:45:48.371Z,32.40
2018-11-06T09:46:48.383Z,33.20
2018-11-06T09:47:48.397Z,35.30
2018-11-06T09:48:48.429Z,32.90
2018-11-06T09:49:48.436Z,33.90
2018-11-06T09:50:48.462Z,31.90
2018-11-06T09:51:48.521Z,34.10
2018-11-06T09:52:48.488Z,32.10
2018-11-06T09:53:48.514Z,33.80
2018-11-06T09:54:48.529Z,31.60
2018-11-06T09:55:48.542Z,34.60
2018-11-06T09:56:48.567Z,36.70
2018-11-06T09:57:48.586Z,31.80
2018-11-06T09:58:48.611Z,30.00
2018-11-06T09:59:48.620Z,30.10
2018-11-06T10:00:48.635Z,31.80
2018-11-06T10:01:48.661Z,33.90
2018-11-06T10:02:48.673Z,32.50
2018-11-06T10:03:48.699Z,35.70
2018-11-06T10:04:48.714Z,30.20
2018-11-06T10:05:48.726Z,28.80
2018-11-06T10:06:48.952Z,29.10
2018-11-06T10:07:48.830Z,31.20
2018-11-06T10:08:48.793Z,31.20
2018-11-06T10:09:48.805Z,32.30
2018-11-06T10:10:48.832Z,28.10
2018-11-06T10:11:48.845Z,33.10
2018-11-06T10:12:48.874Z,31.30
2018-11-06T10:13:48.884Z,34.10
2018-11-06T10:14:48.898Z,28.80
2018-11-06T10:15:49.075Z,29.80
2018-11-06T10:16:48.936Z,28.90
2018-11-06T10:17:48.953Z,29.20
2018-11-06T10:18:48.977Z,34.60
2018-11-06T10:19:49.002Z,28.00
2018-11-06T10:20:49.015Z,32.90
2018-11-06T10:21:49.029Z,30.90
2018-11-06T10:22:49.057Z,29.60
2018-11-06T10:23:49.069Z,32.50
2018-11-06T10:24:49.095Z,29.70
2018-11-06T10:25:49.108Z,32.80
2018-11-06T10:26:49.122Z,29.10
2018-11-06T10:27:49.196Z,29.40
2018-11-06T10:28:49.161Z,30.70
2018-11-06T10:29:49.187Z,26.70
2018-11-06T10:30:49.245Z,29.80
2018-11-06T10:31:49.225Z,30.50
2018-11-06T10:32:49.240Z,28.30
2018-11-06T10:33:49.266Z,29.60
2018-11-06T10:34:49.292Z,28.20
2018-11-06T10:35:49.300Z,28.80
2018-11-06T10:36:49.318Z,27.20
2018-11-06T10:37:49.331Z,30.60
2018-11-06T10:38:49.357Z,32.60
2018-11-06T10:39:49.372Z,31.30
2018-11-06T10:40:49.397Z,30.30
2018-11-06T10:41:49.410Z,28.50
2018-11-06T10:42:49.452Z,32.30
2018-11-06T10:43:49.461Z,28.30
2018-11-06T10:44:49.476Z,29.10
2018-11-06T10:45:49.489Z,29.90
2018-11-06T10:46:49.515Z,29.70
2018-11-06T10:47:49.531Z,25.80
2018-11-06T10:48:49.555Z,28.20
2018-11-06T10:49:49.580Z,30.00
2018-11-06T10:50:49.606Z,26.80
2018-11-06T10:51:49.643Z,26.50
2018-11-06T10:52:49.625Z,30.80
2018-11-06T10:53:49.646Z,24.30
2018-11-06T10:54:49.672Z,30.10
2018-11-06T10:55:49.686Z,25.60
2018-11-06T10:56:49.700Z,26.30
2018-11-06T10:57:49.773Z,26.30
2018-11-06T10:58:49.764Z,25.50
2018-11-06T10:59:49.764Z,26.70
2018-11-06T11:00:49.779Z,26.20
2018-11-06T11:01:49.804Z,26.50
2018-11-06T11:02:49.830Z,27.70
2018-11-06T11:03:49.844Z,28.70
2018-11-06T11:04:49.870Z,29.10
2018-11-06T11:05:49.884Z,28.20
2018-11-06T11:06:49.897Z,27.50
2018-11-06T11:07:49.923Z,26.70
2018-11-06T11:08:49.936Z,25.10
2018-11-06T11:09:49.964Z,26.10
2018-11-06T11:10:50.033Z,28.60
2018-11-06T11:11:50.004Z,26.40
2018-11-06T11:12:50.015Z,26.60
2018-11-06T11:13:50.042Z,27.60
2018-11-06T11:14:50.066Z,29.00
2018-11-06T11:15:50.080Z,28.80
2018-11-06T11:16:50.107Z,25.20
2018-11-06T11:17:50.120Z,26.20
2018-11-06T11:18:50.157Z,29.60
2018-11-06T11:19:50.158Z,29.90
2018-11-06T11:20:50.186Z,27.00
2018-11-06T11:21:50.201Z,28.00
2018-11-06T11:22:50.223Z,27.90
2018-11-06T11:23:50.239Z,29.60
2018-11-06T11:24:50.263Z,27.80
2018-11-06T11:25:50.379Z,27.70
2018-11-06T11:26:50.304Z,26.20
2018-11-06T11:27:50.317Z,26.90
2018-11-06T11:28:50.343Z,31.00
2018-11-06T11:29:50.359Z,28.10
2018-11-06T11:30:50.383Z,25.50
2018-11-06T11:31:50.394Z,26.00
2018-11-06T11:32:50.421Z,28.40
2018-11-06T11:33:50.453Z,23.60
2018-11-06T11:34:50.459Z,27.00
2018-11-06T11:35:50.488Z,26.90
2018-11-06T11:36:50.500Z,25.90
2018-11-06T11:37:50.626Z,24.40
2018-11-06T11:38:50.547Z,26.60
2018-11-06T11:39:50.565Z,25.10
2018-11-06T11:40:50.581Z,25.00
2018-11-06T11:41:50.605Z,28.70
2018-11-06T11:42:50.617Z,24.50
2018-11-06T11:43:50.644Z,22.70
2018-11-06T11:44:50.658Z,26.90
2018-11-06T11:45:50.697Z,23.70
2018-11-06T11:46:50.709Z,23.50
2018-11-06T11:47:50.722Z,27.10
2018-11-06T11:48:50.747Z,24.60
2018-11-06T11:49:50.769Z,24.30
2018-11-06T11:50:50.788Z,27.50
2018-11-06T11:51:50.800Z,24.60
2018-11-06T11:52:50.826Z,24.80
2018-11-06T11:53:50.841Z,24.90
2018-11-06T11:54:50.867Z,24.30
2018-11-06T11:55:50.892Z,21.70
2018-11-06T11:56:50.904Z,23.70
2018-11-06T11:57:50.931Z,24.90
2018-11-06T11:58:50.945Z,26.80
2018-11-06T11:59:50.973Z,23.50
2018-11-06T12:00:50.984Z,24.70
2018-11-06T12:01:51.010Z,24.30
2018-11-06T12:02:51.036Z,29.50
2018-11-06T12:03:51.054Z,26.30
2018-11-06T12:04:51.075Z,24.20
2018-11-06T12:05:51.088Z,27.20
2018-11-06T12:06:51.117Z,25.10
2018-11-06T12:07:51.128Z,20.80
2018-11-06T12:08:51.154Z,22.30
2018-11-06T12:09:51.168Z,20.50
2018-11-06T12:10:51.195Z,22.70
2018-11-06T12:11:51.219Z,23.20
2018-11-06T12:12:51.233Z,20.60
2018-11-06T12:13:51.259Z,20.90
2018-11-06T12:14:51.272Z,23.00
2018-11-06T12:15:51.297Z,21.60
2018-11-06T12:16:51.312Z,22.80
2018-11-06T12:17:51.338Z,20.20
2018-11-06T12:18:51.365Z,20.20
2018-11-06T12:19:51.377Z,20.20
2018-11-06T12:20:51.403Z,22.80
2018-11-06T12:21:51.416Z,19.40
2018-11-06T12:22:51.443Z,22.30
2018-11-06T12:23:51.498Z,21.40
2018-11-06T12:24:51.687Z,22.50
2018-11-06T12:25:51.654Z,20.10
2018-11-06T12:26:51.520Z,18.40
2018-11-06T12:27:51.547Z,23.90
2018-11-06T12:28:51.559Z,25.00
2018-11-06T12:29:51.589Z,24.40
2018-11-06T12:30:51.600Z,25.00
2018-11-06T12:31:51.625Z,25.40
2018-11-06T12:32:51.656Z,23.30
2018-11-06T12:33:51.667Z,25.10
2018-11-06T12:34:51.703Z,26.50
2018-11-06T12:35:51.705Z,26.80
2018-11-06T12:36:51.772Z,27.10
2018-11-06T12:37:51.756Z,25.40
2018-11-06T12:38:51.769Z,25.20
2018-11-06T12:39:51.841Z,23.30
2018-11-06T12:40:51.809Z,24.30
2018-11-06T12:41:51.834Z,22.70
2018-11-06T12:42:51.931Z,23.20
2018-11-06T12:43:51.875Z,26.00
2018-11-06T12:44:51.902Z,26.60
2018-11-06T12:45:51.915Z,22.50
2018-11-06T12:46:51.939Z,23.70
2018-11-06T12:47:51.953Z,24.10
2018-11-06T12:48:51.979Z,23.00
2018-11-06T12:49:52.006Z,25.30
2018-11-06T12:50:52.019Z,23.40
2018-11-06T12:51:52.046Z,23.00
2018-11-06T12:52:52.056Z,23.80